createdAt,value
2023-01-09T00:02:10.584Z,21.50
2023-01-09T00:04:56.647Z,18.30
2023-01-09T00:07:33.485Z,21.70
2023-01-09T00:10:08.258Z,21.90
2023-01-09T00:12:45.738Z,21.80
2023-01-09T00:15:22.884Z,23.00
2023-01-09T00:18:06.498Z,21.80
2023-01-09T00:20:43.096Z,19.80
2023-01-09T00:23:17.384Z,20.10
2023-01-09T00:26:09.294Z,22.60
2023-01-09T00:29:03.757Z,22.70
2023-01-09T00:31:40.357Z,20.30
2023-01-09T00:34:25.815Z,21.70
2023-01-09T00:37:20.408Z,22.00
2023-01-09T00:39:57.211Z,23.30
2023-01-09T00:42:40.728Z,20.00
2023-01-09T00:45:28.895Z,22.00
2023-01-09T00:48:27.455Z,22.80
2023-01-09T00:51:02.514Z,20.70
2023-01-09T00:53:49.417Z,20.90
2023-01-09T00:56:38.569Z,20.80
2023-01-09T00:59:26.294Z,21.00
2023-01-09T01:02:04.249Z,21.40
2023-01-09T01:04:55.789Z,21.00
2023-01-09T01:07:49.856Z,22.30
2023-01-09T01:10:44.010Z,20.80
2023-01-09T01:13:38.656Z,20.70
2023-01-09T01:16:32.772Z,19.80
2023-01-09T01:19:17.169Z,18.90
2023-01-09T01:21:54.472Z,20.20
2023-01-09T01:24:28.804Z,21.80
2023-01-09T01:27:12.949Z,21.70
2023-01-09T01:29:46.643Z,20.00
2023-01-09T01:32:20.879Z,20.80
2023-01-09T01:34:57.405Z,20.70
2023-01-09T01:37:44.042Z,23.00
2023-01-09T01:40:38.657Z,19.10
2023-01-09T01:43:50.599Z,17.40
2023-01-09T01:46:27.990Z,19.20
2023-01-09T01:49:23.497Z,19.70
2023-01-09T01:52:07.810Z,20.10
2023-01-09T01:54:41.622Z,19.90
2023-01-09T01:57:27.192Z,21.10
2023-01-09T02:00:03.850Z,19.80
2023-01-09T02:02:38.062Z,21.10
2023-01-09T02:05:33.108Z,19.50
2023-01-09T02:08:17.778Z,19.20
2023-01-09T02:10:55.439Z,19.00
2023-01-09T02:13:33.734Z,21.20
2023-01-09T02:16:43.484Z,21.10
2023-01-09T02:19:58.315Z,21.60
2023-01-09T02:23:05.315Z,20.40
2023-01-09T02:26:05.595Z,20.00
2023-01-09T02:29:28.913Z,19.80
2023-01-09T02:32:07.331Z,19.70
2023-01-09T02:35:15.855Z,19.90
2023-01-09T02:38:19.147Z,18.50
2023-01-09T02:41:20.220Z,20.60
2023-01-09T02:44:24.991Z,20.10
2023-01-09T02:47:39.668Z,20.40
2023-01-09T02:50:38.619Z,20.70
2023-01-09T02:54:03.837Z,20.60
2023-01-09T02:57:09.802Z,20.20
2023-01-09T03:00:02.389Z,20.90
2023-01-09T03:02:49.732Z,19.70
2023-01-09T03:05:32.822Z,18.40
2023-01-09T03:08:32.018Z,21.00
2023-01-09T03:11:16.200Z,21.10
2023-01-09T03:14:11.715Z,20.90
2023-01-09T03:17:03.733Z,20.10
2023-01-09T03:19:59.128Z,19.70
2023-01-09T03:22:50.368Z,19.50
2023-01-09T03:25:43.254Z,19.30
2023-01-09T03:28:32.749Z,20.40
2023-01-09T03:31:18.503Z,20.40
2023-01-09T03:34:12.217Z,19.30
2023-01-09T03:37:06.155Z,19.40
2023-01-09T03:39:43.843Z,19.80
2023-01-09T03:42:20.668Z,18.30
2023-01-09T03:44:54.588Z,15.80
2023-01-09T03:47:38.125Z,18.70
2023-01-09T03:50:24.777Z,18.10
2023-01-09T03:53:20.423Z,17.70
2023-01-09T03:56:05.816Z,19.60
2023-01-09T03:59:00.139Z,18.00
2023-01-09T04:01:36.468Z,16.70
2023-01-09T04:04:21.849Z,18.20
2023-01-09T04:07:14.786Z,16.90
2023-01-09T04:09:59.221Z,17.00
2023-01-09T04:12:44.314Z,18.30
2023-01-09T04:15:18.845Z,18.10
2023-01-09T04:17:52.705Z,20.10
2023-01-09T04:20:50.314Z,17.00
2023-01-09T04:23:33.988Z,19.20
2023-01-09T04:26:18.340Z,18.20
2023-01-09T04:29:09.066Z,17.60
2023-01-09T04:31:42.824Z,17.80
2023-01-09T04:34:27.935Z,17.30
2023-01-09T04:37:01.925Z,17.90
2023-01-09T04:39:46.318Z,17.30
2023-01-09T04:42:40.691Z,19.00
2023-01-09T04:45:34.770Z,16.70
2023-01-09T04:48:29.260Z,15.90
2023-01-09T04:51:23.250Z,19.30
2023-01-09T04:54:17.117Z,17.70
2023-01-09T04:57:11.629Z,18.70
2023-01-09T04:59:45.517Z,18.30
2023-01-09T05:02:29.531Z,16.70
2023-01-09T05:05:24.565Z,15.90
2023-01-09T05:08:09.159Z,18.00
2023-01-09T05:10:53.097Z,17.30
2023-01-09T05:13:47.391Z,16.90
2023-01-09T05:16:21.442Z,16.60
2023-01-09T05:19:15.551Z,15.80
2023-01-09T05:21:59.508Z,16.70
2023-01-09T05:24:44.744Z,15.80
2023-01-09T05:27:38.811Z,15.10
2023-01-09T05:30:32.956Z,16.30
2023-01-09T05:33:27.116Z,17.10
2023-01-09T05:36:01.244Z,16.80
2023-01-09T05:38:55.438Z,16.70
2023-01-09T05:41:49.526Z,16.30
2023-01-09T05:44:23.729Z,16.20
2023-01-09T05:47:08.925Z,14.80
2023-01-09T05:49:43.067Z,14.40
2023-01-09T05:52:26.796Z,15.70
2023-01-09T05:55:21.143Z,16.40
2023-01-09T05:58:06.440Z,14.60
2023-01-09T06:00:44.192Z,16.90
2023-01-09T06:03:18.266Z,16.40
2023-01-09T06:06:12.488Z,15.40
2023-01-09T06:08:52.403Z,15.80
2023-01-09T06:11:38.767Z,14.80
2023-01-09T06:14:15.240Z,16.20
2023-01-09T06:16:52.638Z,15.60
2023-01-09T06:19:46.802Z,14.80
2023-01-09T06:22:41.206Z,15.20
2023-01-09T06:25:35.306Z,16.00
2023-01-09T06:28:12.570Z,15.40
2023-01-09T06:30:56.931Z,15.10
2023-01-09T06:33:33.658Z,15.80
2023-01-09T06:36:27.923Z,14.80
2023-01-09T06:39:14.360Z,16.20
2023-01-09T06:41:48.870Z,14.00
2023-01-09T06:44:36.847Z,15.10
2023-01-09T06:47:31.374Z,14.30
2023-01-09T06:50:06.013Z,14.40
2023-01-09T06:52:50.340Z,14.40
2023-01-09T06:55:34.737Z,14.10
2023-01-09T06:58:28.679Z,15.00
2023-01-09T07:01:23.380Z,13.90
2023-01-09T07:04:05.943Z,14.80
2023-01-09T07:07:00.320Z,13.80
2023-01-09T07:09:38.178Z,14.80
2023-01-09T07:12:13.230Z,14.00
2023-01-09T07:14:53.043Z,13.80
2023-01-09T07:17:30.577Z,14.40
2023-01-09T07:20:16.714Z,13.90
2023-01-09T07:23:12.827Z,14.20
2023-01-09T07:26:07.085Z,12.90
2023-01-09T07:28:54.911Z,12.30
2023-01-09T07:31:28.813Z,13.60
2023-01-09T07:34:02.573Z,13.60
2023-01-09T07:36:56.979Z,13.40
2023-01-09T07:39:40.006Z,14.40
2023-01-09T07:42:17.419Z,14.40
2023-01-09T07:44:54.688Z,13.50
2023-01-09T07:47:28.714Z,14.30
2023-01-09T07:50:02.634Z,14.70
2023-01-09T07:52:36.355Z,13.50
2023-01-09T07:55:15.528Z,15.60
2023-01-09T07:57:53.591Z,13.80
2023-01-09T08:00:32.433Z,13.80
2023-01-09T08:03:07.332Z,11.70
2023-01-09T08:05:52.889Z,14.00
2023-01-09T08:08:37.388Z,14.90
2023-01-09T08:11:11.185Z,13.60
2023-01-09T08:13:44.933Z,16.30
2023-01-09T08:16:39.269Z,13.80
2023-01-09T08:19:33.480Z,14.10
2023-01-09T08:22:07.705Z,12.90
2023-01-09T08:24:45.174Z,13.30
2023-01-09T08:27:19.032Z,13.60
2023-01-09T08:29:55.201Z,12.30
2023-01-09T08:32:52.527Z,13.10
2023-01-09T08:35:39.695Z,13.10
2023-01-09T08:38:33.782Z,13.50
2023-01-09T08:41:45.207Z,15.30
2023-01-09T08:44:47.883Z,12.90
2023-01-09T08:47:42.104Z,14.40
2023-01-09T08:50:20.489Z,14.00
2023-01-09T08:53:15.773Z,12.60
2023-01-09T08:56:10.619Z,14.50
2023-01-09T08:59:04.625Z,13.60
2023-01-09T09:01:41.861Z,12.10
2023-01-09T09:04:26.988Z,14.70
2023-01-09T09:07:01.211Z,12.90
2023-01-09T09:09:55.663Z,14.30
2023-01-09T09:12:51.655Z,12.30
2023-01-09T09:15:28.765Z,13.20
2023-01-09T09:18:23.400Z,14.10
2023-01-09T09:21:10.079Z,13.40
2023-01-09T09:24:05.504Z,13.60
2023-01-09T09:26:59.569Z,13.70
2023-01-09T09:29:53.579Z,13.00
2023-01-09T09:32:48.110Z,13.50
2023-01-09T09:35:23.016Z,13.90
2023-01-09T09:38:08.623Z,13.40
2023-01-09T09:41:33.037Z,13.40
2023-01-09T09:44:53.311Z,13.30
2023-01-09T09:47:46.289Z,12.50
2023-01-09T09:51:00.716Z,13.90
2023-01-09T09:54:01.222Z,14.60
2023-01-09T09:56:50.053Z,13.50
2023-01-09T09:59:38.488Z,13.60
2023-01-09T10:02:27.059Z,13.50
2023-01-09T10:05:20.863Z,13.90
2023-01-09T10:08:27.426Z,15.60
2023-01-09T10:11:27.323Z,13.00
2023-01-09T10:14:22.836Z,15.00
2023-01-09T10:17:09.505Z,13.60
2023-01-09T10:20:26.429Z,14.90
2023-01-09T10:23:11.707Z,14.80
2023-01-09T10:26:03.922Z,12.50
2023-01-09T10:29:07.600Z,12.40
2023-01-09T10:31:55.038Z,14.40
2023-01-09T10:34:58.974Z,14.20
2023-01-09T10:37:40.438Z,13.30
2023-01-09T10:40:32.099Z,14.90
2023-01-09T10:43:29.282Z,14.90
2023-01-09T10:46:27.654Z,15.70
2023-01-09T10:52:20.968Z,11.70
2023-01-09T10:57:56.326Z,15.00
2023-01-09T11:00:40.408Z,14.30
2023-01-09T11:03:34.965Z,14.40
2023-01-09T11:06:22.818Z,14.30
2023-01-09T11:09:03.659Z,14.00
2023-01-09T11:11:52.735Z,15.10
2023-01-09T11:14:31.754Z,14.20
2023-01-09T11:17:28.291Z,15.10
2023-01-09T11:20:26.451Z,15.90
2023-01-09T11:23:03.763Z,15.30
2023-01-09T11:25:56.752Z,14.20
2023-01-09T11:29:09.359Z,16.00
2023-01-09T11:31:56.291Z,15.90
2023-01-09T11:34:40.765Z,12.80
2023-01-09T11:37:26.391Z,13.90
2023-01-09T11:40:02.008Z,16.20
2023-01-09T11:42:55.164Z,14.20
2023-01-09T11:45:34.122Z,15.80
2023-01-09T11:48:20.493Z,13.70
2023-01-09T11:51:25.605Z,15.20
2023-01-09T11:54:26.964Z,15.00
2023-01-09T11:57:03.536Z,15.00
2023-01-09T11:59:39.845Z,15.80
2023-01-09T12:02:47.508Z,15.00
2023-01-09T12:05:43.443Z,14.70
2023-01-09T12:08:28.993Z,14.30
2023-01-09T12:11:24.436Z,14.80
2023-01-09T12:14:19.578Z,15.80
2023-01-09T12:17:17.082Z,14.90
2023-01-09T12:20:27.683Z,14.40
2023-01-09T12:23:23.096Z,15.90
2023-01-09T12:26:23.204Z,15.50
2023-01-09T12:29:32.098Z,14.00
2023-01-09T12:32:23.664Z,15.50
2023-01-09T12:35:09.583Z,15.60
2023-01-09T12:38:08.451Z,15.80
2023-01-09T12:41:12.097Z,15.60
2023-01-09T12:43:58.038Z,16.20
2023-01-09T12:46:45.461Z,16.00
2023-01-09T12:49:32.467Z,15.50
2023-01-09T12:52:12.855Z,15.30
2023-01-09T12:54:53.611Z,14.90
2023-01-09T12:57:36.267Z,14.20
2023-01-09T13:00:23.938Z,14.30
2023-01-09T13:03:17.852Z,16.20
2023-01-09T13:05:54.087Z,15.90
2023-01-09T13:08:32.200Z,16.20
2023-01-09T13:11:19.863Z,16.20
2023-01-09T13:14:08.141Z,16.90
2023-01-09T13:16:46.495Z,16.40
2023-01-09T13:22:08.081Z,17.50
2023-01-09T13:25:16.722Z,16.00
2023-01-09T13:28:09.466Z,15.60
2023-01-09T13:31:04.074Z,15.80
2023-01-09T13:33:40.367Z,13.10
2023-01-09T13:36:25.962Z,15.40
2023-01-09T13:39:27.196Z,15.90
2023-01-09T13:42:47.016Z,14.40
2023-01-09T13:45:34.311Z,16.40
2023-01-09T13:48:42.439Z,15.20
2023-01-09T13:52:00.921Z,15.50
2023-01-09T13:55:17.989Z,15.10
2023-01-09T13:58:29.154Z,16.00
2023-01-09T14:01:44.637Z,14.30
2023-01-09T14:04:47.676Z,14.60
2023-01-09T14:07:25.225Z,14.80
2023-01-09T14:10:29.249Z,15.90
2023-01-09T14:13:08.528Z,15.60
2023-01-09T14:16:09.452Z,14.30
2023-01-09T14:18:51.597Z,16.00
2023-01-09T14:21:51.649Z,15.40
2023-01-09T14:24:32.755Z,15.00
2023-01-09T14:27:47.641Z,15.90
2023-01-09T14:30:32.563Z,15.50
2023-01-09T14:33:26.506Z,14.50
2023-01-09T14:36:22.199Z,16.10
2023-01-09T14:39:17.992Z,12.90
2023-01-09T14:42:09.431Z,13.60
2023-01-09T14:44:53.995Z,16.00
2023-01-09T14:47:42.336Z,15.70
2023-01-09T14:52:58.610Z,14.80
2023-01-09T14:55:42.152Z,14.80
2023-01-09T14:58:22.495Z,14.70
2023-01-09T15:01:02.563Z,14.70
2023-01-09T15:03:40.225Z,14.90
2023-01-09T15:06:21.284Z,14.60
2023-01-09T15:09:02.929Z,14.60
2023-01-09T15:11:42.649Z,16.90
2023-01-09T15:14:27.795Z,16.50
2023-01-09T15:17:03.404Z,15.90
2023-01-09T15:19:38.191Z,17.00
2023-01-09T15:22:29.320Z,16.50
2023-01-09T15:25:19.320Z,15.60
2023-01-09T15:27:59.431Z,17.00
2023-01-09T15:30:37.674Z,16.10
2023-01-09T15:33:17.228Z,15.40
2023-01-09T15:35:58.839Z,16.60
2023-01-09T15:38:54.315Z,16.50
2023-01-09T15:41:48.373Z,16.00
2023-01-09T15:44:36.783Z,18.30
2023-01-09T15:47:18.901Z,17.20
2023-01-09T15:50:17.654Z,16.60
2023-01-09T15:53:01.976Z,18.00
2023-01-09T15:55:49.134Z,18.70
2023-01-09T15:58:37.510Z,18.50
2023-01-09T16:01:30.254Z,18.20
2023-01-09T16:04:09.971Z,16.70
2023-01-09T16:07:04.229Z,16.80
2023-01-09T16:09:57.029Z,16.20
2023-01-09T16:12:34.939Z,16.10
2023-01-09T16:15:22.058Z,18.80
2023-01-09T16:18:24.155Z,17.80
2023-01-09T16:21:22.537Z,17.50
2023-01-09T16:24:26.918Z,16.50
2023-01-09T16:27:31.036Z,18.10
2023-01-09T16:30:06.820Z,18.50
2023-01-09T16:32:53.012Z,17.80
2023-01-09T16:35:28.766Z,18.80
2023-01-09T16:38:04.852Z,16.30
2023-01-09T16:41:23.772Z,16.30
2023-01-09T16:43:57.757Z,16.50
2023-01-09T16:46:31.713Z,16.80
2023-01-09T16:49:15.850Z,17.30
2023-01-09T16:52:19.198Z,16.60
2023-01-09T16:54:56.538Z,17.20
2023-01-09T16:57:35.566Z,17.60
2023-01-09T17:00:30.327Z,18.40
2023-01-09T17:03:04.472Z,18.10
2023-01-09T17:05:38.525Z,18.90
2023-01-09T17:08:25.165Z,17.50
2023-01-09T17:11:20.686Z,17.70
2023-01-09T17:14:15.879Z,16.20
2023-01-09T17:17:02.812Z,18.80
2023-01-09T17:19:57.000Z,18.50
2023-01-09T17:22:51.391Z,17.40
2023-01-09T17:25:43.263Z,16.70
2023-01-09T17:28:36.369Z,17.70
2023-01-09T17:31:31.682Z,17.50
2023-01-09T17:34:17.454Z,16.70
2023-01-09T17:36:56.012Z,17.90
2023-01-09T17:39:38.038Z,16.90
2023-01-09T17:42:23.584Z,16.30
2023-01-09T17:45:18.786Z,16.70
2023-01-09T17:48:18.179Z,15.80
2023-01-09T17:50:52.754Z,17.00
2023-01-09T17:53:47.163Z,16.70
2023-01-09T17:56:45.049Z,15.80
2023-01-09T17:59:31.289Z,15.80
2023-01-09T18:02:21.472Z,15.90
2023-01-09T18:05:06.644Z,15.90
2023-01-09T18:08:01.572Z,16.50
2023-01-09T18:10:35.716Z,16.00
2023-01-09T18:13:15.403Z,16.30
2023-01-09T18:15:52.937Z,16.50
2023-01-09T18:18:38.565Z,16.90
2023-01-09T18:21:16.378Z,17.70
2023-01-09T18:23:57.069Z,16.90
2023-01-09T18:26:51.370Z,18.30
2023-01-09T18:29:26.104Z,16.20
2023-01-09T18:32:13.203Z,17.90
2023-01-09T18:34:58.164Z,16.00
2023-01-09T18:37:34.382Z,16.70
2023-01-09T18:40:30.332Z,16.60
2023-01-09T18:45:45.731Z,16.20
2023-01-09T18:48:20.875Z,15.20
2023-01-09T18:51:07.526Z,15.90
2023-01-09T18:53:43.508Z,14.60
2023-01-09T18:56:27.214Z,12.70
2023-01-09T18:59:06.827Z,12.70
2023-01-09T19:01:42.506Z,14.80
2023-01-09T19:04:21.614Z,12.20
2023-01-09T19:07:00.507Z,13.90
2023-01-09T19:09:36.303Z,14.40
2023-01-09T19:12:14.401Z,12.50
2023-01-09T19:15:13.274Z,13.40
2023-01-09T19:17:52.918Z,14.80
2023-01-09T19:20:49.294Z,14.70
2023-01-09T19:23:35.121Z,13.80
2023-01-09T19:26:27.186Z,15.10
2023-01-09T19:29:21.313Z,15.20
2023-01-09T19:31:57.342Z,14.40
2023-01-09T19:34:35.396Z,16.80
2023-01-09T19:37:11.355Z,16.40
2023-01-09T19:39:48.262Z,15.50
2023-01-09T19:42:23.702Z,16.10
2023-01-09T19:45:22.836Z,16.00
2023-01-09T19:48:00.294Z,16.50
2023-01-09T19:51:05.684Z,16.60
2023-01-09T19:56:44.334Z,17.50
2023-01-09T19:59:30.203Z,17.60
2023-01-09T20:02:15.858Z,18.10
2023-01-09T20:04:51.233Z,18.10
2023-01-09T20:07:46.077Z,16.50
2023-01-09T20:10:32.906Z,17.30
2023-01-09T20:13:19.720Z,16.70
2023-01-09T20:15:56.266Z,16.80
2023-01-09T20:18:37.115Z,17.40
2023-01-09T20:21:14.542Z,17.70
2023-01-09T20:23:49.429Z,18.10
2023-01-09T20:26:31.153Z,17.70
2023-01-09T20:29:13.198Z,15.90
2023-01-09T20:32:11.008Z,18.00
2023-01-09T20:34:47.093Z,17.60
2023-01-09T20:37:32.083Z,17.90
2023-01-09T20:40:07.998Z,17.80
2023-01-09T20:42:53.350Z,18.00
2023-01-09T20:45:48.185Z,18.10
2023-01-09T20:48:23.946Z,17.10
2023-01-09T20:51:09.376Z,18.90
2023-01-09T20:53:47.785Z,18.60
2023-01-09T20:56:33.701Z,19.90
2023-01-09T20:59:28.001Z,18.60
2023-01-09T21:02:07.373Z,19.30
2023-01-09T21:05:01.816Z,19.60
2023-01-09T21:07:56.477Z,19.70
2023-01-09T21:10:50.728Z,20.60
2023-01-09T21:13:34.928Z,20.40
2023-01-09T21:16:11.550Z,20.90
2023-01-09T21:18:45.726Z,21.00
2023-01-09T21:21:21.139Z,20.40
2023-01-09T21:23:59.301Z,20.20
2023-01-09T21:26:33.099Z,20.70
2023-01-09T21:29:08.612Z,21.80
2023-01-09T21:31:45.472Z,21.40
2023-01-09T21:34:29.998Z,19.70
2023-01-09T21:37:04.140Z,18.50
2023-01-09T21:39:58.055Z,20.20
2023-01-09T21:43:09.553Z,21.90
2023-01-09T21:46:21.238Z,20.90
2023-01-09T21:49:08.325Z,21.70
2023-01-09T21:51:56.451Z,22.10
2023-01-09T21:54:50.707Z,19.70
2023-01-09T21:57:37.324Z,23.30
2023-01-09T22:00:14.146Z,21.90
2023-01-09T22:02:59.302Z,20.50
2023-01-09T22:05:53.381Z,20.70
2023-01-09T22:08:38.395Z,22.40
2023-01-09T22:11:32.849Z,21.80
2023-01-09T22:14:20.231Z,22.20
2023-01-09T22:17:07.712Z,23.80
2023-01-09T22:20:01.977Z,20.90
2023-01-09T22:22:42.681Z,22.80
2023-01-09T22:25:22.831Z,19.50
2023-01-09T22:27:56.745Z,22.10
2023-01-09T22:30:51.260Z,19.70
2023-01-09T22:33:50.573Z,22.70
2023-01-09T22:36:45.846Z,22.00
2023-01-09T22:39:21.648Z,21.40
2023-01-09T22:44:44.143Z,19.60
2023-01-09T22:47:18.828Z,20.20
2023-01-09T22:49:54.932Z,20.90
2023-01-09T22:52:49.330Z,22.80
2023-01-09T22:55:46.959Z,21.30
2023-01-09T22:58:34.511Z,21.20
2023-01-09T23:01:19.273Z,21.60
2023-01-09T23:04:05.341Z,20.60
2023-01-09T23:06:59.685Z,20.20
2023-01-09T23:09:38.492Z,20.10
2023-01-09T23:12:13.068Z,19.60
2023-01-09T23:14:57.669Z,20.30
2023-01-09T23:17:31.616Z,20.50
2023-01-09T23:20:26.149Z,19.70
2023-01-09T23:23:11.184Z,19.80
2023-01-09T23:26:07.082Z,21.70
2023-01-09T23:28:51.189Z,20.80
2023-01-09T23:31:38.054Z,20.00
2023-01-09T23:34:26.059Z,20.90
2023-01-09T23:37:11.555Z,21.30
2023-01-09T23:39:45.728Z,21.10
2023-01-09T23:42:46.303Z,20.00
2023-01-09T23:45:20.733Z,20.50
2023-01-09T23:47:59.285Z,20.80
2023-01-09T23:50:55.754Z,20.60
2023-01-09T23:53:49.757Z,21.00
2023-01-09T23:56:34.969Z,20.80
2023-01-09T23:59:11.304Z,21.20
